Latest Coastal Weather Observations for Norah Head

IDN60701

Issued at 4:42 pm EDT Thursday 25 February 2021 (issued every 10 minutes, with the page automatically refreshed every 10 minutes)

About coastal observations | Map of coastal stations | Coastal observations for NSW | Marine services | Other Formats
Station Details ID: 061366 Name: NORAH HEAD AWS Lat: -33.28 Lon: 151.58 Height: 18.8 m
Data from the previous 72 hours. | See also: Recent months at Norah Head
Date/Time
EDT
Wind Sea
Height
m
Swell Vis
km
Cloud Weather Temp
°C
Press
MSL
hPa
Rain since
9am
mm
Dir  Spd
kts
Gust
kts
Height
m
Period
s
Dir
25/04:30pm NE 12 14 - - - - - - - 24.3 1008.3 0.0
25/04:00pm NNE 12 14 - - - - - - - 22.8 1009.4 0.0
25/03:30pm NNE 13 15 - - - - - - - 23.0 1009.6 0.0
25/03:00pm NE 12 15 - - - - - - - 24.7 1009.9 0.0
25/02:30pm NNE 11 13 - - - - - - - 24.2 1009.9 0.0
25/02:00pm NE 11 12 - - - - - - - 23.7 1010.4 0.0
25/01:30pm NE 8 10 - - - - - - - 24.9 1010.7 0.0
25/01:00pm NE 8 10 - - - - - - - 26.1 1011.2 0.0
25/12:30pm NE 5 7 - - - - - - - 26.5 1011.3 0.0
25/12:00pm ENE 4 5 - - - - - - - 24.6 1011.6 0.0
25/11:30am NE 7 8 - - - - - - - 24.6 1011.9 0.0
25/11:00am NE 4 7 - - - - - - - 25.2 1011.9 0.0
25/10:30am ENE 4 5 - - - - - - - 23.0 1011.8 0.0
25/10:00am ENE 3 4 - - - - - - - 23.3 1011.7 0.0
25/09:30am N 3 5 - - - - - - - 23.2 1011.7 0.0
25/09:00am NNW 1 3 - - - - - - - 21.3 1011.8 2.8
25/08:30am N 2 4 - - - - - - - 20.9 1011.6 2.8
25/08:00am NW 2 5 - - - - - - - 20.5 1011.5 2.8
25/07:30am NW 3 4 - - - - - - - 20.1 1011.2 2.8
25/07:00am N 8 9 - - - - - - - 19.9 1010.8 2.8
25/06:30am NNW 4 5 - - - - - - - 19.1 1010.9 2.8
25/06:00am NW 3 5 - - - - - - - 19.0 1011.0 2.8
25/05:30am NW 6 8 - - - - - - - 19.5 1011.1 2.8
25/05:00am NW 5 7 - - - - - - - 19.8 1011.0 2.8
25/04:30am N 12 15 - - - - - - - 20.8 1011.1 2.8
25/04:00am N 22 28 - - - - - - - 21.4 1010.7 2.8
25/03:30am N 16 21 - - - - - - - 21.1 1011.2 2.8
25/03:00am N 13 17 - - - - - - - 20.9 1011.6 2.8
25/02:30am NNE 24 28 - - - - - - - 21.8 1011.5 2.8
25/02:00am NNE 21 25 - - - - - - - 21.8 1012.0 2.8
25/01:30am NNE 21 26 - - - - - - - 21.7 1012.4 2.8
25/01:00am NNE 20 23 - - - - - - - 21.8 1013.1 2.8
25/12:30am NNE 20 23 - - - - - - - 21.9 1013.2 2.8
25/12:00am NNE 17 22 - - - - - - - 22.3 1013.8 2.8
 
Date/Time
EDT
Wind Sea
Height
m
Swell Vis
km
Cloud Weather Temp
°C
Press
MSL
hPa
Rain since
9am
mm
Dir  Spd
kts
Gust
kts
Height
m
Period
s
Dir
24/11:30pm NNE 18 22 - - - - - - - 22.2 1013.8 2.8
24/11:00pm NNE 16 19 - - - - - - - 21.9 1014.3 2.8
24/10:30pm NE 14 17 - - - - - - - 21.3 1014.5 2.8
24/10:00pm N 8 11 - - - - - - - 21.1 1014.9 2.8
24/09:40pm NNE 15 25 - - - - - - - 21.5 1014.5 2.8
24/09:30pm NE 12 13 - - - - - - - 21.2 1014.6 2.8
24/09:00pm NE 13 17 - - - - - - - 20.7 1015.0 2.8
24/08:30pm NNE 18 22 - - - - - - - 20.7 1014.8 2.8
24/08:00pm NE 16 19 - - - - - - - 20.1 1015.0 2.8
24/07:41pm ENE 13 24 - - - - - - - 20.8 1014.8 2.8
24/07:30pm ENE 8 10 - - - - - - - 21.0 1015.1 2.8
24/07:00pm ENE 14 21 - - - - - - - 21.7 1015.0 2.2
24/06:58pm ENE 13 21 - - - - - - - 21.9 1015.0 2.2
24/06:30pm ENE 8 10 - - - - - - - 21.6 1014.7 2.2
24/06:00pm ENE 8 10 - - - - - - Recent precip. 21.7 1014.7 2.2
24/05:30pm NE 6 8 - - - - - - - 21.6 1015.0 2.0
24/05:00pm ENE 6 7 - - - - - - - 21.5 1015.1 2.0
24/04:30pm ESE 2 4 - - - - - - - 22.1 1015.1 2.0
24/04:00pm S 3 6 - - - - - - - 22.1 1015.1 2.0
24/03:30pm S 9 12 - - - - - - - 21.1 1015.5 2.0
24/03:00pm S 7 9 - - - - - - Rain 20.8 1015.9 2.0
24/02:30pm SSW 10 13 - - - - - - - 20.8 1016.4 0.6
24/02:00pm SSW 11 14 - - - - - - - 21.4 1016.6 0.6
24/01:30pm SSW 11 14 - - - - - - - 20.7 1017.0 0.6
24/01:00pm SSW 11 16 - - - - - - - 20.5 1017.1 0.6
24/12:30pm SSW 10 12 - - - - - - - 20.8 1017.4 0.2
24/12:00pm SSW 9 12 - - - - - - - 20.9 1017.7 0.0
24/11:30am SSW 8 12 - - - - - - - 20.7 1018.0 0.0
24/11:00am SSW 7 11 - - - - - - - 21.1 1017.9 0.0
24/10:30am SSW 8 11 - - - - - - - 20.7 1017.8 0.0
24/10:00am SW 6 9 - - - - - - - 20.1 1017.8 0.0
24/09:30am SW 5 8 - - - - - - - 19.6 1017.5 0.0
24/09:00am SW 7 10 - - - - - - - 19.2 1017.4 21.0
24/08:30am WSW 6 10 - - - - - - - 18.9 1017.1 21.0
24/08:00am SW 7 11 - - - - - - - 18.0 1016.9 21.0
24/07:30am WSW 7 10 - - - - - - - 18.0 1016.7 21.0
24/07:00am S 6 10 - - - - - - - 19.7 1016.3 21.0
24/06:30am S 12 15 - - - - - - - 19.4 1015.6 21.0
24/06:00am S 14 17 - - - - - - - 19.4 1015.4 21.0
24/05:30am WSW 6 10 - - - - - - - 18.3 1015.3 21.0
24/05:00am W 5 9 - - - - - - - 17.7 1015.1 21.0
24/04:30am W 5 8 - - - - - - - 17.6 1015.2 20.8
24/04:00am WSW 7 13 - - - - - - - 17.6 1015.3 20.8
24/03:30am W 4 7 - - - - - - - 17.4 1015.5 20.8
24/03:00am W 5 10 - - - - - - Recent precip. 17.4 1015.5 20.8
24/02:30am W 6 11 - - - - - - - 17.7 1015.9 20.0
24/02:00am W 4 7 - - - - - - - 18.2 1016.1 13.0
24/01:30am SW 5 10 - - - - - - - 19.2 1016.5 13.0
24/01:00am S 15 19 - - - - - - - 19.7 1016.5 13.0
24/12:30am S 15 19 - - - - - - - 20.0 1016.6 13.0
24/12:00am S 18 23 - - - - - - Recent precip. 19.7 1016.5 13.0
 
Date/Time
EDT
Wind Sea
Height
m
Swell Vis
km
Cloud Weather Temp
°C
Press
MSL
hPa
Rain since
9am
mm
Dir  Spd
kts
Gust
kts
Height
m
Period
s
Dir
23/11:30pm S 18 24 - - - - - - - 19.3 1016.5 13.0
23/11:00pm S 22 26 - - - - - - - 19.8 1016.5 12.2
23/10:30pm S 24 29 - - - - - - - 20.0 1016.1 12.2
23/10:00pm S 20 27 - - - - - - - 20.2 1016.2 12.2
23/09:30pm S 20 27 - - - - - - - 20.4 1016.1 12.2
23/09:00pm SSW 20 28 - - - - - - - 20.6 1015.7 12.2
23/08:30pm SSW 20 27 - - - - - - - 20.8 1015.2 12.2
23/08:00pm S 19 27 - - - - - - - 20.7 1014.7 12.2
23/07:30pm S 21 28 - - - - - - - 20.6 1014.1 12.2
23/07:00pm S 21 27 - - - - - - - 20.5 1014.0 12.2
23/06:30pm S 20 25 - - - - - - - 20.4 1013.9 12.2
23/06:00pm S 21 27 - - - - - - - 20.4 1013.6 12.2
23/05:30pm S 19 24 - - - - - - - 20.1 1013.6 12.2
23/05:00pm S 20 26 - - - - - - - 20.2 1013.4 12.2
23/04:30pm S 17 22 - - - - - - - 20.2 1013.4 12.2
23/04:00pm S 18 24 - - - - - - - 19.7 1013.5 12.2
23/03:30pm S 16 22 - - - - - - - 19.3 1013.6 12.2
23/03:00pm S 18 21 - - - - - - - 19.7 1013.7 12.0
23/02:30pm S 19 23 - - - - - - - 19.9 1013.5 12.0
23/02:00pm S 21 25 - - - - - - - 19.8 1013.3 12.0
23/01:30pm S 20 24 - - - - - - - 20.2 1013.3 12.0
23/01:00pm S 20 23 - - - - - - - 20.1 1013.2 12.0
23/12:30pm S 19 24 - - - - - - - 20.1 1013.2 12.0
23/12:00pm S 18 22 - - - - - - - 20.1 1013.4 12.0
23/11:30am S 18 23 - - - - - - - 20.1 1013.2 12.0
23/11:00am SSE 20 23 - - - - - - - 19.9 1013.0 12.0
23/10:30am S 19 24 - - - - - - - 19.9 1012.7 12.0
23/10:00am S 15 22 - - - - - - - 20.2 1012.4 12.0
23/09:30am S 15 19 - - - - - - - 19.8 1012.3 8.0
23/09:00am SSE 16 19 - - - - - - Rain 20.1 1011.9 7.4
23/08:30am SSE 17 20 - - - - - - - 20.3 1011.4 6.8
23/08:00am S 19 23 - - - - - - - 20.7 1010.9 6.8
23/07:30am S 19 23 - - - - - - - 21.2 1010.6 6.8
23/07:00am S 15 20 - - - - - - - 20.9 1010.4 6.8
23/06:30am S 18 23 - - - - - - - 21.2 1009.7 6.8
23/06:00am SSE 20 25 - - - - - - - 20.5 1009.4 6.8
23/05:30am SSE 23 27 - - - - - - - 20.7 1008.9 6.8
23/05:00am S 16 22 - - - - - - - 20.5 1009.0 6.8
23/04:30am S 20 25 - - - - - - - 20.2 1008.6 6.8
23/04:00am S 22 27 - - - - - - - 20.1 1008.6 6.6
23/03:30am S 16 22 - - - - - - - 20.4 1008.5 6.0
23/03:00am S 17 22 - - - - - - Recent precip. 20.5 1008.7 6.0
23/02:30am S 19 26 - - - - - - - 20.1 1008.6 6.0
23/02:00am SSW 19 27 - - - - - - - 20.1 1008.6 5.8
23/01:30am SSW 19 25 - - - - - - - 20.2 1008.6 5.2
23/01:00am SSW 21 29 - - - - - - - 20.4 1008.6 5.2
23/12:30am SSW 20 28 - - - - - - - 20.6 1008.6 4.8
23/12:00am SSW 22 31 - - - - - - Rain 20.7 1008.5 4.4
 
Date/Time
EDT
Wind Sea
Height
m
Swell Vis
km
Cloud Weather Temp
°C
Press
MSL
hPa
Rain since
9am
mm
Dir  Spd
kts
Gust
kts
Height
m
Period
s
Dir
22/11:30pm SSW 22 29 - - - - - - - 21.2 1008.4 3.8
22/11:00pm SSW 20 29 - - - - - - - 21.3 1008.5 3.6
22/10:40pm SSW 20 30 - - - - - - - 21.4 1008.5 1.8
22/10:30pm SSW 22 29 - - - - - - - 21.5 1008.4 1.0
22/10:00pm SSW 23 31 - - - - - - - 21.3 1008.2 0.8
22/09:30pm SSW 22 29 - - - - - - - 22.0 1007.8 0.2
22/09:00pm SSW 18 25 - - - - - - - 22.6 1007.3 0.2
22/08:30pm S 16 21 - - - - - - - 23.7 1006.8 0.2
22/08:00pm S 18 21 - - - - - - - 23.6 1006.1 0.2
22/07:30pm SSW 13 17 - - - - - - - 23.5 1005.8 0.2
22/07:00pm SSW 8 12 - - - - - - - 23.7 1005.8 0.2
22/06:30pm SSW 12 15 - - - - - - - 24.0 1005.2 0.2
22/06:00pm SSW 13 17 - - - - - - - 23.8 1005.1 0.2
22/05:30pm SSW 12 15 - - - - - - - 24.7 1005.0 0.2
22/05:00pm S 13 16 - - - - - - - 25.3 1005.2 0.2

Other formats

Comma delimited format used in spreadsheet applications
http://www.bom.gov.au/fwo/IDN60701/IDN60701.95770.axf

JavaScript Object Notation format (JSON) in row-major order
http://www.bom.gov.au/fwo/IDN60701/IDN60701.95770.json

Data quality

Most of these data are generated automatically and are frequently updated. Quality checks on data are not normally performed. It is possible for incorrect values to appear. Refer to information at About Latest Weather Observations and please check the disclaimer before using these data.